Time;durP1;ratioP1;P1;durP2;ratioP2;P2;SDS_P1;SDS_P2;PMS_P1;PMS_P2;Temp;Humidity;BMP_temperature;BMP_pressure;BME280_temperature;BME280_humidity;BME280_pressure;Samples;Min_cycle;Max_cycle;Signal;HPM_P1;HPM_P2
2023/03/01 00:01:36;;;;;;;22.08;15.00;;;-0.20;99.90;;;;;;6252414;22;20034;-84
2023/03/01 00:04:02;;;;;;;22.63;14.80;;;-0.70;99.90;;;;;;6249255;22;20090;-85
2023/03/01 00:06:33;;;;;;;21.25;13.82;;;-0.10;99.90;;;;;;6254117;22;20045;-83
2023/03/01 00:09:02;;;;;;;20.42;14.55;;;-0.80;99.90;;;;;;6250696;22;20099;-85
2023/03/01 00:11:30;;;;;;;22.45;14.48;;;-0.80;99.90;;;;;;6252063;22;20090;-86
2023/03/01 00:14:00;;;;;;;25.30;15.30;;;-0.20;99.90;;;;;;6253289;22;20090;-84
2023/03/01 00:16:35;;;;;;;25.95;15.00;;;-0.70;99.90;;;;;;6253609;22;20447;-83
2023/03/01 00:19:02;;;;;;;25.65;15.73;;;-0.70;99.90;;;;;;6252254;22;20017;-84
2023/03/01 00:21:30;;;;;;;20.98;14.27;;;-0.70;99.90;;;;;;6277937;22;20049;-84
2023/03/01 00:23:57;;;;;;;21.45;14.25;;;-0.40;99.90;;;;;;6253364;22;20045;-84
2023/03/01 00:26:24;;;;;;;23.85;14.60;;;-0.40;99.90;;;;;;6277355;22;20509;-85
2023/03/01 00:28:51;;;;;;;22.58;14.80;;;-0.80;99.90;;;;;;6252038;22;20436;-84
2023/03/01 00:31:20;;;;;;;23.00;14.70;;;-1.00;99.90;;;;;;6253836;22;20007;-84
2023/03/01 00:33:46;;;;;;;20.83;12.98;;;-0.80;99.90;;;;;;6249057;22;20019;-82
2023/03/01 00:36:14;;;;;;;18.90;13.55;;;-1.10;99.90;;;;;;6247893;22;20081;-84
2023/03/01 00:38:42;;;;;;;15.07;11.23;;;-0.40;99.90;;;;;;6247829;22;20023;-84
2023/03/01 00:41:12;;;;;;;17.73;11.65;;;-1.00;99.90;;;;;;6247492;22;20339;-83
2023/03/01 00:43:39;;;;;;;14.88;11.18;;;-0.60;99.90;;;;;;6256424;22;20020;-82
2023/03/01 00:46:10;;;;;;;16.63;11.15;;;-1.00;99.90;;;;;;6260676;22;20036;-83
2023/03/01 00:48:36;;;;;;;13.65;10.38;;;-0.60;99.90;;;;;;6298243;22;20027;-84
2023/03/01 00:51:16;;;;;;;16.60;10.63;;;-1.10;99.90;;;;;;6273687;22;20004;-84
2023/03/01 00:53:42;;;;;;;12.98;9.68;;;-0.70;99.90;;;;;;6250904;22;20045;-83
2023/03/01 00:56:09;;;;;;;14.10;9.80;;;-0.80;99.90;;;;;;6248306;22;20084;-84
2023/03/01 00:58:36;;;;;;;13.10;9.52;;;-0.70;99.90;;;;;;6248196;22;20381;-84
2023/03/01 01:01:16;;;;;;;12.35;9.23;;;-0.90;99.90;;;;;;6247054;22;20059;-83
2023/03/01 01:03:48;;;;;;;12.32;9.10;;;-1.40;99.90;;;;;;6247312;22;20088;-84
2023/03/01 01:06:24;;;;;;;12.73;8.70;;;-1.30;99.90;;;;;;6246996;22;20027;-85
2023/03/01 01:08:50;;;;;;;11.32;8.77;;;-1.30;99.90;;;;;;6247218;22;20051;-85
2023/03/01 01:11:16;;;;;;;11.73;8.18;;;-1.10;99.90;;;;;;6247132;22;20011;-84
2023/03/01 01:13:44;;;;;;;15.43;8.75;;;-1.50;99.90;;;;;;6269629;22;20069;-84
2023/03/01 01:16:12;;;;;;;11.43;8.70;;;-1.10;99.90;;;;;;6274314;22;20331;-84
2023/03/01 01:18:38;;;;;;;31.85;9.95;;;-1.30;99.90;;;;;;6247298;22;20026;-85
2023/03/01 01:21:10;;;;;;;32.15;12.95;;;-0.80;99.90;;;;;;6248118;22;20088;-83
2023/03/01 01:23:38;;;;;;;16.98;10.85;;;-1.10;99.90;;;;;;6247524;22;20050;-84
2023/03/01 01:26:10;;;;;;;19.42;11.77;;;-1.50;99.90;;;;;;6271987;22;20034;-83
2023/03/01 01:28:36;;;;;;;16.98;11.57;;;-1.60;99.90;;;;;;6272172;22;20047;-84
2023/03/01 01:31:02;;;;;;;22.73;13.82;;;-1.50;99.90;;;;;;6248317;22;20014;-84
2023/03/01 01:33:28;;;;;;;19.45;12.73;;;-1.10;99.90;;;;;;6247930;22;20055;-84
2023/03/01 01:35:54;;;;;;;21.15;12.45;;;-1.00;99.90;;;;;;6273440;22;20081;-84
2023/03/01 01:38:21;;;;;;;18.70;12.52;;;-1.60;99.90;;;;;;6247939;22;20023;-82
2023/03/01 01:40:48;;;;;;;17.40;11.45;;;-1.40;99.90;;;;;;6274016;22;20309;-84
2023/03/01 01:43:33;;;;;;;16.00;11.18;;;-1.20;99.90;;;;;;6246227;22;20019;-84
2023/03/01 01:46:23;;;;;;;19.65;12.20;;;-1.10;99.90;;;;;;6246709;22;20024;-82
2023/03/01 01:49:13;;;;;;;21.40;11.65;;;-1.60;99.90;;;;;;6247975;22;20423;-83
2023/03/01 01:51:42;;;;;;;15.43;11.30;;;-1.20;99.90;;;;;;6247657;22;20087;-83
2023/03/01 01:54:27;;;;;;;19.42;10.98;;;-1.70;99.90;;;;;;6272433;22;20416;-82
2023/03/01 01:56:58;;;;;;;16.10;11.45;;;-1.50;99.90;;;;;;6272220;22;20016;-83
2023/03/01 01:59:25;;;;;;;15.00;10.60;;;-1.30;99.90;;;;;;6246862;22;20012;-83
2023/03/01 02:01:54;;;;;;;15.32;10.52;;;-2.00;99.90;;;;;;6272929;22;20011;-83
2023/03/01 02:04:21;;;;;;;14.93;11.05;;;-1.40;99.90;;;;;;6245179;22;20069;-84
2023/03/01 02:07:17;;;;;;;13.48;9.57;;;-1.40;99.90;;;;;;6219570;22;20011;-84
2023/03/01 02:09:47;;;;;;;;;;;-1.40;99.90;;;;;;6247314;22;20046;-83
2023/03/01 02:12:14;;;;;;;14.25;9.80;;;-1.80;99.90;;;;;;6246602;22;19933;-84
2023/03/01 02:14:41;;;;;;;14.40;9.80;;;-1.60;99.90;;;;;;6273573;22;20011;-83
2023/03/01 02:17:14;;;;;;;15.10;10.15;;;-1.90;99.90;;;;;;6272056;22;20050;-84
2023/03/01 02:23:21;;;;;;;14.30;9.90;;;-1.60;99.90;;;;;;6273296;22;20023;-83
2023/03/01 02:25:54;;;;;;;15.40;9.77;;;-2.20;99.90;;;;;;6273516;22;20127;-84
2023/03/01 02:28:23;;;;;;;16.48;11.88;;;-1.70;99.90;;;;;;6245754;22;20008;-83
2023/03/01 02:34:08;;;;;;;14.63;11.77;;;-1.60;99.90;;;;;;6270140;22;20070;-82
2023/03/01 02:36:38;;;;;;;15.82;10.55;;;-1.30;99.90;;;;;;6245994;22;20366;-84
2023/03/01 02:39:57;;;;;;;15.18;10.23;;;-2.00;99.90;;;;;;6245206;22;20316;-82
2023/03/01 02:43:28;;;;;;;13.82;9.60;;;-1.40;99.90;;;;;;6127989;23;20353;-83
2023/03/01 02:46:25;;;;;;;13.80;10.57;;;-2.10;99.90;;;;;;5893295;24;20452;-82
2023/03/01 02:53:45;;;;;;;12.10;9.25;;;-1.60;99.90;;;;;;5787263;24;20102;-84
2023/03/01 02:57:03;;;;;;;11.18;8.70;;;-1.60;99.90;;;;;;5759271;24;20012;-84
2023/03/01 03:01:02;;;;;;;;;;;;;;;;;;;;;
2023/03/01 03:03:55;;;;;;;13.10;8.93;;;-2.00;99.90;;;;;;5791941;24;20472;-84
2023/03/01 03:06:23;;;;;;;13.13;8.20;;;-2.10;99.90;;;;;;5792718;24;20127;-85
2023/03/01 03:08:54;;;;;;;10.75;8.43;;;-1.80;99.90;;;;;;5761730;24;20014;-84
2023/03/01 03:11:26;;;;;;;9.18;7.57;;;-2.00;99.90;;;;;;5741603;24;20568;-84
2023/03/01 03:14:02;;;;;;;8.10;7.05;;;-1.90;99.90;;;;;;5769996;24;20077;-85
2023/03/01 03:16:43;;;;;;;10.82;7.18;;;-2.20;99.90;;;;;;5788111;24;20049;-84
2023/03/01 03:19:25;;;;;;;9.40;7.10;;;-2.50;99.90;;;;;;5867916;24;20520;-83
2023/03/01 03:22:04;;;;;;;10.65;8.40;;;-2.40;99.90;;;;;;5915563;24;20080;-83
2023/03/01 03:24:56;;;;;;;9.40;7.85;;;-2.20;99.90;;;;;;6019585;23;20073;-84
2023/03/01 03:30:24;;;;;;;9.52;7.85;;;-2.80;99.90;;;;;;6122562;23;20451;-84
2023/03/01 03:32:56;;;;;;;11.38;7.72;;;-2.80;99.90;;;;;;6073026;23;20018;-83
2023/03/01 03:35:30;;;;;;;10.68;8.50;;;-2.50;99.90;;;;;;6068307;23;20022;-87
2023/03/01 03:38:16;;;;;;;11.55;8.68;;;-2.20;99.90;;;;;;6046109;23;20026;-84
2023/03/01 03:41:02;;;;;;;11.18;8.70;;;-2.60;99.90;;;;;;6211066;22;20158;-85
2023/03/01 03:44:16;;;;;;;16.05;9.32;;;-2.50;99.90;;;;;;6215282;23;20095;-84
2023/03/01 03:46:54;;;;;;;11.18;8.52;;;-2.70;99.90;;;;;;6192884;23;20316;-85
2023/03/01 03:49:39;;;;;;;12.27;9.02;;;-2.30;99.90;;;;;;6192594;23;20475;-85
2023/03/01 03:52:23;;;;;;;12.32;9.05;;;-2.90;99.90;;;;;;6215648;23;20413;-84
2023/03/01 03:55:00;;;;;;;11.88;8.07;;;-2.30;99.90;;;;;;6191252;23;20047;-84
2023/03/01 03:58:10;;;;;;;10.27;8.27;;;-2.50;99.90;;;;;;6124849;23;20047;-84
2023/03/01 04:00:58;;;;;;;10.68;8.43;;;-2.30;99.90;;;;;;6092660;23;20019;-84
2023/03/01 04:03:37;;;;;;;10.30;8.18;;;-2.50;99.90;;;;;;6068101;23;20022;-85
2023/03/01 04:06:52;;;;;;;11.18;7.78;;;-2.40;99.90;;;;;;6069690;23;20403;-84
2023/03/01 04:09:21;;;;;;;11.23;8.73;;;-2.30;99.90;;;;;;6068643;23;20137;-82
2023/03/01 04:12:09;;;;;;;11.88;8.68;;;-2.30;99.90;;;;;;6063634;23;20022;-84
2023/03/01 04:15:16;;;;;;;10.82;7.90;;;-2.40;99.90;;;;;;6056644;23;20442;-83
2023/03/01 04:21:20;;;;;;;14.05;9.35;;;-2.60;99.90;;;;;;5979326;24;20016;-84
2023/03/01 04:24:02;;;;;;;11.52;9.20;;;-2.40;99.90;;;;;;5929754;24;20055;-85
2023/03/01 04:26:39;;;;;;;;;;;-2.80;99.90;;;;;;5920638;24;20073;-84
2023/03/01 04:29:20;;;;;;;10.57;8.43;;;-2.90;99.90;;;;;;5898636;24;20038;-84
2023/03/01 04:32:02;;;;;;;11.93;8.75;;;-2.40;99.90;;;;;;5934001;23;20012;-85
2023/03/01 04:34:33;;;;;;;11.10;8.70;;;-2.90;99.90;;;;;;6020976;23;20090;-84
2023/03/01 04:37:39;;;;;;;12.88;9.52;;;-2.50;99.90;;;;;;6009544;23;20082;-85
2023/03/01 04:40:16;;;;;;;13.02;9.85;;;-2.80;99.90;;;;;;6032267;23;20023;-84
2023/03/01 04:42:43;;;;;;;15.73;10.93;;;-2.50;99.90;;;;;;5994070;23;20045;-84
2023/03/01 04:45:21;;;;;;;15.75;10.45;;;-2.60;99.90;;;;;;6032898;23;20110;-85
2023/03/01 04:48:12;;;;;;;17.08;10.95;;;-3.20;99.90;;;;;;6033901;23;20015;-85
2023/03/01 04:50:50;;;;;;;16.83;11.05;;;-3.30;99.90;;;;;;6061028;23;20010;-82
2023/03/01 04:53:18;;;;;;;19.35;12.38;;;-2.60;99.90;;;;;;6071194;23;20026;-85
2023/03/01 04:55:55;;;;;;;24.73;11.88;;;-2.60;99.90;;;;;;6191065;23;20075;-84
2023/03/01 04:58:29;;;;;;;28.58;11.27;;;-2.70;99.90;;;;;;6189928;23;20016;-84
2023/03/01 05:01:20;;;;;;;28.80;11.63;;;-3.30;99.90;;;;;;6190514;23;20055;-84
2023/03/01 05:03:54;;;;;;;70.30;10.88;;;-3.40;99.90;;;;;;6189697;23;20023;-84
2023/03/01 05:06:20;;;;;;;274.50;14.85;;;-3.30;99.90;;;;;;6189297;23;20095;-85
2023/03/01 05:08:58;;;;;;;109.07;13.48;;;-2.70;99.90;;;;;;6191300;23;20023;-84
2023/03/01 05:11:31;;;;;;;261.02;17.00;;;-2.70;99.90;;;;;;6188759;23;20016;-85
2023/03/01 05:14:21;;;;;;;283.08;17.95;;;-3.10;99.90;;;;;;6239898;23;20038;-85
2023/03/01 05:17:03;;;;;;;203.98;15.05;;;-3.00;99.90;;;;;;6189606;23;20016;-85
2023/03/01 05:19:32;;;;;;;245.73;15.80;;;-3.20;99.90;;;;;;6188873;23;20052;-85
2023/03/01 05:22:10;;;;;;;89.18;14.65;;;-3.00;99.90;;;;;;6190219;23;20484;-84
2023/03/01 05:24:46;;;;;;;115.50;15.05;;;-3.20;99.90;;;;;;6190710;23;20023;-84
2023/03/01 05:27:18;;;;;;;54.97;13.38;;;-2.60;99.90;;;;;;6189282;23;20026;-85
2023/03/01 05:29:46;;;;;;;197.25;15.77;;;-3.20;99.90;;;;;;6189437;23;20529;-85
2023/03/01 05:32:56;;;;;;;20.35;12.48;;;-2.80;99.90;;;;;;6193628;23;20446;-85
2023/03/01 05:36:07;;;;;;;24.77;13.20;;;-3.20;99.90;;;;;;6220287;23;20103;-84
2023/03/01 05:38:43;;;;;;;21.77;12.38;;;-3.20;99.90;;;;;;6194553;23;20012;-82
2023/03/01 05:41:17;;;;;;;19.95;12.10;;;-3.30;99.90;;;;;;6188221;23;20099;-85
2023/03/01 05:43:51;;;;;;;20.50;12.85;;;-3.10;99.90;;;;;;6186268;23;20701;-82
2023/03/01 05:46:20;;;;;;;;;;;-2.60;99.90;;;;;;6233210;22;20284;-84
2023/03/01 05:48:59;;;;;;;15.90;11.38;;;-2.70;99.90;;;;;;6253494;22;19947;-84
2023/03/01 05:51:42;;;;;;;15.73;10.15;;;-2.80;99.90;;;;;;6252700;22;20018;-84
2023/03/01 05:54:13;;;;;;;16.52;11.10;;;-2.80;99.90;;;;;;6251452;22;20022;-85
2023/03/01 05:56:43;;;;;;;17.85;11.98;;;-3.10;99.90;;;;;;6251791;22;20468;-83
2023/03/01 05:59:16;;;;;;;17.60;11.30;;;-2.90;99.90;;;;;;6276712;22;20011;-84
2023/03/01 06:01:42;;;;;;;18.17;11.70;;;-3.30;99.90;;;;;;6250896;22;20115;-83
2023/03/01 06:04:19;;;;;;;18.23;11.57;;;-2.70;99.90;;;;;;6249402;22;20022;-82
2023/03/01 06:06:45;;;;;;;15.05;10.98;;;-3.10;99.90;;;;;;6250631;22;20014;-83
2023/03/01 06:09:11;;;;;;;18.20;11.15;;;-2.70;99.90;;;;;;6251319;22;20011;-89
2023/03/01 06:11:39;;;;;;;17.05;11.82;;;-3.40;99.90;;;;;;6251040;22;20345;-86
2023/03/01 06:14:07;;;;;;;18.10;11.07;;;-2.80;99.90;;;;;;6250730;22;20442;-83
2023/03/01 06:16:39;;;;;;;17.02;11.55;;;-2.70;99.90;;;;;;6252391;22;20064;-88
2023/03/01 06:19:05;;;;;;;19.17;11.05;;;-2.90;99.90;;;;;;6251178;22;20019;-84
2023/03/01 06:21:30;;;;;;;18.38;11.68;;;-3.30;99.90;;;;;;6250906;22;20398;-86
2023/03/01 06:23:56;;;;;;;15.95;10.90;;;-3.50;99.90;;;;;;6276825;22;20094;-88
2023/03/01 06:26:25;;;;;;;18.35;11.50;;;-3.10;99.90;;;;;;6272567;22;20019;-85
2023/03/01 06:28:50;;;;;;;17.88;11.52;;;-3.50;99.90;;;;;;6250459;22;20107;-87
2023/03/01 06:31:17;;;;;;;18.83;11.77;;;-3.20;99.90;;;;;;6252175;22;20015;-86
2023/03/01 06:33:44;;;;;;;16.25;11.38;;;-3.00;99.90;;;;;;6253001;22;20022;-84
2023/03/01 06:36:10;;;;;;;21.77;12.65;;;-3.40;99.90;;;;;;6255494;22;20114;-84
2023/03/01 06:38:40;;;;;;;21.15;13.23;;;-3.10;99.90;;;;;;6276335;22;20015;-89
2023/03/01 06:41:09;;;;;;;19.30;12.65;;;-2.90;99.90;;;;;;6249397;22;20015;-86
2023/03/01 06:43:38;;;;;;;23.60;14.18;;;-2.70;99.90;;;;;;6247916;22;20423;-85
2023/03/01 06:46:05;;;;;;;20.55;13.30;;;-2.80;99.90;;;;;;6250838;22;20023;-82
2023/03/01 06:48:31;;;;;;;19.48;12.90;;;-3.30;99.90;;;;;;6279704;22;20074;-87
2023/03/01 06:51:52;;;;;;;19.40;13.40;;;-2.90;99.90;;;;;;6254700;22;20018;-85
2023/03/01 06:54:18;;;;;;;21.02;13.18;;;-3.30;99.90;;;;;;6253425;22;20016;-86
2023/03/01 06:56:47;;;;;;;18.02;12.27;;;-2.90;99.90;;;;;;6257312;22;20030;-83
2023/03/01 06:59:13;;;;;;;20.63;13.13;;;-2.60;99.90;;;;;;6258429;22;20019;-83
2023/03/01 07:01:39;;;;;;;23.60;12.82;;;-3.20;99.90;;;;;;6308191;22;20070;-85
2023/03/01 07:04:04;;;;;;;23.83;12.55;;;-3.00;99.90;;;;;;6251136;22;20034;-87
2023/03/01 07:06:30;;;;;;;22.40;14.65;;;-2.90;99.90;;;;;;6248661;22;20011;-86
2023/03/01 07:09:58;;;;;;;19.60;12.70;;;-2.30;99.90;;;;;;6248573;22;20007;-82
2023/03/01 07:13:54;;;;;;;;;;;;;;;;;;;;;
2023/03/01 07:17:18;;;;;;;;;;;;;;;;;;;;;
2023/03/01 07:20:22;;;;;;;22.25;13.93;;;-3.00;99.90;;;;;;6001819;23;20649;-83
2023/03/01 07:23:46;;;;;;;22.92;14.30;;;-2.40;99.90;;;;;;5981701;23;20032;-83
2023/03/01 07:44:36;;;;;;;26.38;16.05;;;-2.00;99.90;;;;;;4978179;28;20069;-82
2023/03/01 07:49:06;;;;;;;30.88;17.27;;;-2.10;99.90;;;;;;4955308;28;20050;-83
2023/03/01 07:58:52;;;;;;;26.90;17.25;;;-1.60;99.90;;;;;;4940669;28;20557;-84
2023/03/01 08:02:06;;;;;;;28.80;17.70;;;-1.60;99.90;;;;;;4907125;28;20167;-83
2023/03/01 08:05:22;;;;;;;29.27;17.58;;;-1.50;99.90;;;;;;4888957;29;20044;-83
2023/03/01 08:08:13;;;;;;;28.37;18.20;;;-0.80;99.90;;;;;;4869008;29;20057;-83
2023/03/01 08:18:17;;;;;;;46.95;25.20;;;-0.50;99.90;;;;;;4867523;29;20140;-82
2023/03/01 08:21:09;;;;;;;41.85;25.55;;;-0.60;99.90;;;;;;4913289;28;20420;-81
2023/03/01 08:24:11;;;;;;;39.30;25.40;;;-0.20;99.90;;;;;;4939232;28;20507;-82
2023/03/01 08:26:52;;;;;;;49.47;27.75;;;-0.20;99.90;;;;;;4973960;28;20053;-82
2023/03/01 08:33:51;;;;;;;53.03;28.60;;;-0.20;99.90;;;;;;4889701;29;20175;-81
2023/03/01 08:37:30;;;;;;;58.55;29.88;;;-0.20;99.90;;;;;;4833837;29;20566;-81
2023/03/01 08:40:13;;;;;;;59.85;31.83;;;0.30;99.90;;;;;;4839016;29;20510;-82
2023/03/01 08:43:10;;;;;;;63.00;38.63;;;0.00;99.90;;;;;;4827663;29;20653;-82
2023/03/01 08:45:39;;;;;;;63.35;35.40;;;0.80;99.90;;;;;;4804933;29;20085;-80
2023/03/01 08:48:07;;;;;;;54.28;32.83;;;0.40;99.90;;;;;;4851108;29;20085;-82
2023/03/01 08:51:09;;;;;;;57.03;35.25;;;1.00;99.90;;;;;;4826661;29;20121;-83
2023/03/01 08:53:39;;;;;;;64.38;35.58;;;1.00;99.90;;;;;;4838681;29;20199;-85
2023/03/01 08:56:25;;;;;;;61.25;37.00;;;0.60;99.90;;;;;;4810601;29;20054;-84
2023/03/01 08:59:01;;;;;;;58.85;35.22;;;0.50;99.90;;;;;;4869774;29;20088;-82
2023/03/01 09:01:32;;;;;;;60.15;34.97;;;0.60;99.90;;;;;;4904793;29;20135;-82
2023/03/01 09:04:04;;;;;;;58.23;34.67;;;1.00;99.90;;;;;;4917546;29;20056;-84
2023/03/01 09:27:22;;;;;;;69.95;39.05;;;2.20;99.90;;;;;;4910535;26;20069;-84
2023/03/01 09:30:25;;;;;;;69.45;36.45;;;1.80;99.90;;;;;;4956776;28;20038;-83
2023/03/01 09:33:27;;;;;;;67.15;38.28;;;2.20;99.90;;;;;;4953650;28;20446;-86
2023/03/01 09:36:46;;;;;;;71.30;38.92;;;2.30;99.90;;;;;;4975087;28;20097;-83
2023/03/01 09:39:17;;;;;;;49.67;30.95;;;1.90;99.90;;;;;;4967713;28;20137;-85
2023/03/01 09:42:11;;;;;;;52.47;32.53;;;2.00;99.90;;;;;;4988763;28;20058;-84
2023/03/01 09:44:51;;;;;;;38.67;25.65;;;2.20;99.90;;;;;;4956833;28;20486;-82
2023/03/01 09:47:20;;;;;;;39.85;23.98;;;2.40;99.90;;;;;;4973199;28;20074;-83
2023/03/01 09:50:11;;;;;;;39.67;23.15;;;2.70;99.90;;;;;;4956778;28;20084;-83
2023/03/01 09:52:48;;;;;;;38.97;24.02;;;2.60;99.90;;;;;;4945288;28;20034;-82
2023/03/01 09:55:23;;;;;;;31.20;21.25;;;2.70;99.90;;;;;;4954589;28;20216;-85
2023/03/01 09:58:20;;;;;;;31.00;20.88;;;2.80;99.90;;;;;;4970024;28;20497;-84
2023/03/01 10:12:44;;;;;;;34.15;21.40;;;3.40;99.90;;;;;;4910837;29;20046;-82
2023/03/01 10:15:38;;;;;;;35.35;20.45;;;3.60;99.90;;;;;;4871440;29;20139;-81
2023/03/01 10:18:54;;;;;;;33.58;20.02;;;3.70;99.90;;;;;;4890824;29;21690;-81
2023/03/01 10:21:58;;;;;;;31.05;20.10;;;4.00;99.90;;;;;;4888759;29;20119;-81
2023/03/01 10:24:46;;;;;;;31.85;20.10;;;4.10;99.90;;;;;;4872246;29;20055;-81
2023/03/01 10:28:10;;;;;;;38.13;18.45;;;4.10;99.90;;;;;;4877288;29;20048;-81
2023/03/01 10:30:43;;;;;;;28.60;17.98;;;4.30;99.90;;;;;;4877497;29;20262;-82
2023/03/01 10:33:20;;;;;;;28.35;19.30;;;4.40;99.90;;;;;;4879991;29;20052;-82
2023/03/01 10:35:52;;;;;;;26.90;18.00;;;4.60;99.90;;;;;;4879821;29;20048;-82
2023/03/01 10:38:37;;;;;;;33.17;18.75;;;4.70;99.90;;;;;;4888224;29;20429;-83
2023/03/01 10:41:07;;;;;;;26.27;17.80;;;4.50;99.90;;;;;;4908172;29;20103;-82
2023/03/01 10:43:43;;;;;;;26.35;18.48;;;4.50;99.90;;;;;;4920226;29;20051;-83
2023/03/01 10:46:23;;;;;;;28.15;19.92;;;4.80;99.90;;;;;;4919800;29;20039;-83
2023/03/01 10:49:15;;;;;;;29.77;20.15;;;4.80;99.90;;;;;;4919886;29;20051;-83
2023/03/01 10:51:44;;;;;;;31.40;20.50;;;4.90;99.90;;;;;;4915175;29;20105;-82
2023/03/01 10:54:24;;;;;;;30.23;20.85;;;4.90;99.90;;;;;;4934891;29;20169;-84
2023/03/01 10:57:09;;;;;;;30.55;19.83;;;4.90;99.90;;;;;;4935601;29;20062;-82
2023/03/01 10:59:38;;;;;;;24.60;18.67;;;5.00;99.90;;;;;;4931902;29;20036;-84
2023/03/01 11:02:18;;;;;;;27.00;19.65;;;5.20;99.90;;;;;;4951380;29;20039;-83
2023/03/01 11:05:06;;;;;;;25.77;18.50;;;5.10;99.90;;;;;;4936171;29;20447;-82
2023/03/01 11:07:56;;;;;;;21.27;16.42;;;5.30;99.90;;;;;;4933663;29;20046;-85
2023/03/01 11:10:40;;;;;;;22.55;17.13;;;5.40;99.90;;;;;;4943969;28;20049;-82
2023/03/01 11:13:17;;;;;;;21.90;15.93;;;5.60;99.90;;;;;;4927790;29;20050;-83
2023/03/01 11:16:05;;;;;;;23.55;16.65;;;5.60;99.90;;;;;;4935977;29;20126;-84
2023/03/01 11:18:31;;;;;;;25.05;16.80;;;5.60;99.90;;;;;;4938658;28;20050;-85
2023/03/01 11:21:09;;;;;;;23.42;15.25;;;5.60;99.90;;;;;;4945182;28;20035;-85
2023/03/01 11:23:39;;;;;;;21.50;15.07;;;5.40;99.90;;;;;;4931997;28;20042;-81
2023/03/01 11:26:08;;;;;;;25.42;17.27;;;5.60;99.90;;;;;;4923252;28;20130;-80
2023/03/01 11:29:00;;;;;;;22.02;17.00;;;5.60;99.90;;;;;;4968412;28;20394;-81
2023/03/01 11:31:53;;;;;;;22.00;15.45;;;5.90;99.90;;;;;;4956118;28;20522;-84
2023/03/01 11:35:10;;;;;;;19.20;13.65;;;5.80;99.90;;;;;;4925514;28;20051;-82
2023/03/01 12:11:21;;;;;;;14.23;10.38;;;6.20;99.90;;;;;;4729405;30;20571;-84
2023/03/01 12:14:11;;;;;;;15.88;11.60;;;6.10;99.90;;;;;;4742819;30;20273;-83
2023/03/01 12:16:59;;;;;;;16.42;11.02;;;6.00;99.90;;;;;;4767730;30;20055;-85
2023/03/01 12:20:13;;;;;;;17.38;10.45;;;6.10;99.90;;;;;;4783718;30;20094;-84
2023/03/01 12:23:08;;;;;;;19.98;12.73;;;6.20;99.90;;;;;;4765263;30;20052;-86
2023/03/01 12:25:49;;;;;;;15.60;11.27;;;6.30;99.90;;;;;;4801490;29;20203;-84
2023/03/01 12:29:03;;;;;;;17.25;12.40;;;6.30;99.90;;;;;;4878280;29;20118;-85
2023/03/01 12:31:50;;;;;;;18.85;12.25;;;6.40;99.90;;;;;;4855799;29;20108;-84
2023/03/01 12:34:26;;;;;;;18.25;13.93;;;6.50;99.90;;;;;;4810498;29;20062;-82
2023/03/01 12:37:17;;;;;;;18.90;12.38;;;6.60;99.90;;;;;;4807927;29;20061;-85
2023/03/01 12:40:26;;;;;;;15.70;10.98;;;6.70;99.90;;;;;;4830905;29;20097;-84
2023/03/01 12:43:01;;;;;;;19.65;13.23;;;6.80;99.90;;;;;;4783149;30;20068;-86
2023/03/01 12:45:29;;;;;;;19.50;14.02;;;6.60;99.90;;;;;;4778288;29;20125;-85
2023/03/01 12:48:11;;;;;;;20.48;13.52;;;6.80;99.90;;;;;;4775877;29;20055;-83
2023/03/01 12:50:43;;;;;;;26.92;14.90;;;6.70;99.90;;;;;;4757753;29;20098;-83
2023/03/01 12:53:43;;;;;;;21.45;15.65;;;6.70;99.90;;;;;;4806685;29;20183;-82
2023/03/01 12:56:13;;;;;;;19.92;14.15;;;6.70;99.90;;;;;;4800284;29;20053;-82
2023/03/01 12:58:58;;;;;;;21.73;14.13;;;6.80;99.90;;;;;;4822655;29;20069;-83
2023/03/01 13:01:24;;;;;;;17.27;12.48;;;7.00;99.90;;;;;;4838390;29;20196;-83
2023/03/01 13:04:23;;;;;;;15.25;11.70;;;7.10;99.90;;;;;;4825487;29;20202;-82
2023/03/01 13:07:10;;;;;;;18.80;11.52;;;7.20;99.90;;;;;;4877034;29;20059;-82
2023/03/01 13:10:01;;;;;;;17.85;11.20;;;7.40;99.90;;;;;;4900882;29;20452;-83
2023/03/01 13:12:57;;;;;;;15.48;11.27;;;7.20;99.90;;;;;;4888992;29;20130;-82
2023/03/01 13:15:22;;;;;;;;;;;7.20;99.90;;;;;;4882284;29;20130;-81
2023/03/01 13:17:55;;;;;;;16.63;12.32;;;7.10;99.90;;;;;;4898810;29;20014;-82
2023/03/01 13:20:26;;;;;;;15.65;11.48;;;7.10;99.90;;;;;;4939366;28;20440;-83
2023/03/01 13:23:29;;;;;;;14.88;11.15;;;7.10;99.90;;;;;;4955098;28;20070;-82
2023/03/01 13:26:02;;;;;;;;;;;7.20;99.90;;;;;;4939310;28;20043;-82
2023/03/01 13:28:46;;;;;;;18.83;11.85;;;7.30;99.90;;;;;;4971380;28;20377;-82
2023/03/01 13:31:15;;;;;;;15.98;11.88;;;7.30;99.90;;;;;;4965685;28;20477;-82
2023/03/01 13:33:42;;;;;;;13.77;11.02;;;7.50;99.90;;;;;;4964731;28;20051;-84
2023/03/01 13:36:10;;;;;;;16.92;11.82;;;7.40;99.90;;;;;;4956398;28;20052;-83
2023/03/01 13:38:37;;;;;;;15.45;12.05;;;7.60;99.90;;;;;;4970803;28;20050;-82
2023/03/01 13:41:04;;;;;;;15.43;11.30;;;7.50;99.90;;;;;;4949118;28;20379;-81
2023/03/01 13:43:38;;;;;;;16.33;12.18;;;7.40;99.90;;;;;;4966016;28;20125;-84
2023/03/01 13:46:24;;;;;;;18.65;12.27;;;7.50;99.90;;;;;;4953282;28;20035;-83
2023/03/01 13:48:56;;;;;;;16.85;11.98;;;7.60;99.90;;;;;;4946523;28;20046;-82
2023/03/01 13:51:27;;;;;;;14.23;12.00;;;7.50;99.90;;;;;;4956039;28;20046;-84
2023/03/01 13:53:58;;;;;;;19.30;12.20;;;7.60;99.90;;;;;;4936805;28;20540;-83
2023/03/01 13:56:29;;;;;;;19.10;12.20;;;7.50;99.90;;;;;;4949052;28;20058;-83
2023/03/01 13:59:15;;;;;;;16.02;11.93;;;7.70;99.90;;;;;;4933846;28;20159;-83
2023/03/01 14:01:43;;;;;;;17.25;11.85;;;7.70;99.90;;;;;;4955694;28;20226;-82
2023/03/01 14:04:40;;;;;;;17.60;11.73;;;7.70;99.90;;;;;;4955508;28;20142;-83
2023/03/01 14:07:52;;;;;;;17.35;11.27;;;7.70;99.90;;;;;;4949128;28;20051;-81
2023/03/01 14:11:06;;;;;;;19.20;11.50;;;7.60;99.90;;;;;;4882200;29;20057;-81
2023/03/01 14:17:36;;;;;;;14.77;11.18;;;7.60;99.90;;;;;;4824169;29;20058;-82
2023/03/01 14:20:14;;;;;;;15.57;11.20;;;7.50;99.90;;;;;;4816416;29;20061;-83
2023/03/01 14:22:42;;;;;;;15.02;11.32;;;7.40;99.90;;;;;;4835717;29;20114;-84
2023/03/01 14:25:24;;;;;;;15.35;11.80;;;7.50;99.90;;;;;;4822837;29;20061;-83
2023/03/01 14:27:55;;;;;;;16.30;11.00;;;7.60;99.90;;;;;;4821772;29;20054;-81
2023/03/01 14:30:46;;;;;;;16.80;11.73;;;7.60;99.90;;;;;;4804055;29;20052;-80
2023/03/01 14:33:29;;;;;;;18.35;10.75;;;7.50;99.90;;;;;;4832840;29;20069;-81
2023/03/01 14:44:22;;;;;;;17.80;12.48;;;7.30;99.90;;;;;;4800915;29;20524;-82
2023/03/01 14:47:08;;;;;;;;;;;;;;;;;;;;;
2023/03/01 14:54:01;;;;;;;15.52;12.05;;;7.50;99.90;;;;;;4766773;30;20112;-83
2023/03/01 15:06:41;;;;;;;20.17;13.30;;;7.30;99.90;;;;;;4894965;26;20044;-82
2023/03/01 15:12:52;;;;;;;19.58;13.05;;;7.30;99.90;;;;;;5042252;28;20044;-87
2023/03/01 15:15:46;;;;;;;17.65;12.23;;;7.50;99.90;;;;;;4941111;28;20371;-86
2023/03/01 15:18:41;;;;;;;17.08;13.20;;;7.60;99.90;;;;;;4941106;28;20129;-87
2023/03/01 15:21:46;;;;;;;19.27;12.73;;;7.50;99.90;;;;;;4876917;29;20036;-86
2023/03/01 15:24:39;;;;;;;24.63;12.63;;;7.30;99.90;;;;;;4886510;29;20048;-84
2023/03/01 15:27:06;;;;;;;16.38;13.00;;;7.30;99.90;;;;;;4836507;29;20053;-87
2023/03/01 15:29:37;;;;;;;17.90;12.68;;;7.30;99.90;;;;;;4839324;29;20080;-85
2023/03/01 15:32:30;;;;;;;17.60;13.13;;;7.20;99.90;;;;;;4841934;29;20510;-85
2023/03/01 15:35:37;;;;;;;20.40;13.18;;;7.40;99.90;;;;;;4839773;29;20064;-86
2023/03/01 15:48:49;;;;;;;17.70;13.02;;;7.20;99.90;;;;;;4871199;29;20128;-87
2023/03/01 15:51:17;;;;;;;19.10;13.32;;;7.20;99.90;;;;;;4853908;29;20207;-88
2023/03/01 15:53:49;;;;;;;16.55;13.27;;;7.40;99.90;;;;;;4837748;29;20098;-86
2023/03/01 15:56:15;;;;;;;17.65;13.40;;;7.40;99.90;;;;;;4849264;29;20413;-85
2023/03/01 15:58:45;;;;;;;17.08;12.90;;;7.50;99.90;;;;;;4893084;28;20050;-85
2023/03/01 16:06:02;;;;;;;16.67;12.40;;;7.60;99.90;;;;;;4918743;29;20074;-83
2023/03/01 16:12:47;;;;;;;18.70;13.52;;;7.70;99.90;;;;;;4794775;29;20047;-82
2023/03/01 16:16:07;;;;;;;22.38;12.90;;;7.60;99.90;;;;;;4801016;29;20099;-86
2023/03/01 16:19:28;;;;;;;19.88;12.13;;;7.70;99.90;;;;;;4800062;29;20058;-86
2023/03/01 16:32:58;;;;;;;23.15;13.82;;;7.30;99.90;;;;;;4856986;29;20049;-83
2023/03/01 16:35:24;;;;;;;19.73;13.95;;;7.20;99.90;;;;;;4839785;29;20363;-84
2023/03/01 16:37:49;;;;;;;18.00;14.25;;;7.20;99.90;;;;;;4838263;29;20485;-84
2023/03/01 16:40:24;;;;;;;19.75;14.50;;;7.00;99.90;;;;;;4892098;29;20551;-87
2023/03/01 16:42:50;;;;;;;20.08;13.93;;;6.90;99.90;;;;;;4901186;29;20414;-87
2023/03/01 16:45:16;;;;;;;22.10;15.02;;;6.60;99.90;;;;;;4948092;28;20145;-87
2023/03/01 16:47:42;;;;;;;21.05;14.95;;;6.30;99.90;;;;;;5038488;28;20128;-84
2023/03/01 16:50:09;;;;;;;22.52;15.25;;;5.90;99.90;;;;;;5024505;28;20053;-83